sensor_id;sensor_type;location;lat;lon;timestamp;pressure;altitude;pressure_sealevel;temperature;humidity
61394;BME280;48555;50.952;-0.120;2023-02-19T00:01:11;101777.22;;;11.85;77.05
61394;BME280;48555;50.952;-0.120;2023-02-19T00:03:37;101759.56;;;11.74;77.05
61394;BME280;48555;50.952;-0.120;2023-02-19T00:06:04;101783.34;;;11.85;76.83
61394;BME280;48555;50.952;-0.120;2023-02-19T00:08:31;101785.28;;;11.81;77.05
61394;BME280;48555;50.952;-0.120;2023-02-19T00:13:34;101795.66;;;11.69;76.89
61394;BME280;48555;50.952;-0.120;2023-02-19T00:16:14;101799.47;;;11.63;77.14
61394;BME280;48555;50.952;-0.120;2023-02-19T00:18:39;101800.59;;;11.59;77.41
61394;BME280;48555;50.952;-0.120;2023-02-19T00:21:05;101795.56;;;11.56;77.31
61394;BME280;48555;50.952;-0.120;2023-02-19T00:23:31;101806.09;;;11.54;77.37
61394;BME280;48555;50.952;-0.120;2023-02-19T00:26:02;101802.00;;;11.50;77.47
61394;BME280;48555;50.952;-0.120;2023-02-19T00:28:27;101803.00;;;11.48;77.54
61394;BME280;48555;50.952;-0.120;2023-02-19T00:30:53;101798.03;;;11.43;77.65
61394;BME280;48555;50.952;-0.120;2023-02-19T00:33:18;101805.13;;;11.41;77.86
61394;BME280;48555;50.952;-0.120;2023-02-19T00:35:44;101789.03;;;11.33;78.00
61394;BME280;48555;50.952;-0.120;2023-02-19T00:38:09;101821.34;;;11.48;77.94
61394;BME280;48555;50.952;-0.120;2023-02-19T00:40:34;101822.94;;;11.50;78.00
61394;BME280;48555;50.952;-0.120;2023-02-19T00:43:00;101828.19;;;11.50;78.11
61394;BME280;48555;50.952;-0.120;2023-02-19T00:45:25;101827.50;;;11.47;78.40
61394;BME280;48555;50.952;-0.120;2023-02-19T00:47:51;101820.75;;;11.43;78.67
61394;BME280;48555;50.952;-0.120;2023-02-19T00:50:17;101832.91;;;11.44;79.08
61394;BME280;48555;50.952;-0.120;2023-02-19T00:52:42;101833.78;;;11.44;79.43
61394;BME280;48555;50.952;-0.120;2023-02-19T00:55:07;101847.59;;;11.46;79.68
61394;BME280;48555;50.952;-0.120;2023-02-19T00:57:33;101851.00;;;11.48;79.91
61394;BME280;48555;50.952;-0.120;2023-02-19T00:59:58;101850.63;;;11.54;79.90
61394;BME280;48555;50.952;-0.120;2023-02-19T01:02:23;101850.94;;;11.64;79.86
61394;BME280;48555;50.952;-0.120;2023-02-19T01:04:48;101850.75;;;11.67;80.10
61394;BME280;48555;50.952;-0.120;2023-02-19T01:07:14;101855.81;;;11.70;80.25
61394;BME280;48555;50.952;-0.120;2023-02-19T01:09:39;101843.41;;;11.74;80.33
61394;BME280;48555;50.952;-0.120;2023-02-19T01:12:05;101850.22;;;11.76;80.43
61394;BME280;48555;50.952;-0.120;2023-02-19T01:14:31;101863.41;;;11.75;80.56
61394;BME280;48555;50.952;-0.120;2023-02-19T01:16:56;101863.50;;;11.73;80.48
61394;BME280;48555;50.952;-0.120;2023-02-19T01:19:21;101853.78;;;11.75;80.83
61394;BME280;48555;50.952;-0.120;2023-02-19T01:21:47;101857.16;;;11.77;80.83
61394;BME280;48555;50.952;-0.120;2023-02-19T01:24:12;101856.88;;;11.82;80.70
61394;BME280;48555;50.952;-0.120;2023-02-19T01:26:38;101855.97;;;11.83;80.81
61394;BME280;48555;50.952;-0.120;2023-02-19T01:29:04;101857.63;;;11.84;80.82
61394;BME280;48555;50.952;-0.120;2023-02-19T01:31:29;101862.81;;;11.86;80.88
61394;BME280;48555;50.952;-0.120;2023-02-19T01:33:57;101866.09;;;11.89;80.78
61394;BME280;48555;50.952;-0.120;2023-02-19T01:36:24;101872.19;;;11.90;80.70
61394;BME280;48555;50.952;-0.120;2023-02-19T01:38:50;101861.63;;;11.91;80.59
61394;BME280;48555;50.952;-0.120;2023-02-19T01:41:18;101859.66;;;11.95;80.40
61394;BME280;48555;50.952;-0.120;2023-02-19T01:44:01;101875.38;;;11.95;80.75
61394;BME280;48555;50.952;-0.120;2023-02-19T01:46:31;101870.97;;;11.95;80.60
61394;BME280;48555;50.952;-0.120;2023-02-19T01:49:07;101876.22;;;11.95;80.60
61394;BME280;48555;50.952;-0.120;2023-02-19T01:51:37;101874.38;;;11.97;80.57
61394;BME280;48555;50.952;-0.120;2023-02-19T01:54:05;101864.78;;;11.96;80.31
61394;BME280;48555;50.952;-0.120;2023-02-19T01:56:33;101887.38;;;11.99;80.27
61394;BME280;48555;50.952;-0.120;2023-02-19T01:59:00;101890.75;;;12.01;80.29
61394;BME280;48555;50.952;-0.120;2023-02-19T02:01:26;101889.81;;;12.02;80.08
61394;BME280;48555;50.952;-0.120;2023-02-19T02:03:51;101893.06;;;12.05;79.97
61394;BME280;48555;50.952;-0.120;2023-02-19T02:06:24;101890.38;;;12.07;79.68
61394;BME280;48555;50.952;-0.120;2023-02-19T02:08:52;101890.56;;;12.04;79.66
61394;BME280;48555;50.952;-0.120;2023-02-19T02:11:40;101887.19;;;12.02;79.63
61394;BME280;48555;50.952;-0.120;2023-02-19T02:14:06;101880.03;;;11.90;79.29
61394;BME280;48555;50.952;-0.120;2023-02-19T02:16:55;101884.34;;;11.91;79.17
61394;BME280;48555;50.952;-0.120;2023-02-19T02:30:06;101891.00;;;11.66;78.74
61394;BME280;48555;50.952;-0.120;2023-02-19T02:35:57;101897.72;;;11.56;78.66
61394;BME280;48555;50.952;-0.120;2023-02-19T02:38:27;101885.13;;;11.47;78.80
61394;BME280;48555;50.952;-0.120;2023-02-19T02:40:53;101894.69;;;11.48;78.63
61394;BME280;48555;50.952;-0.120;2023-02-19T02:43:20;101882.69;;;11.44;78.57
61394;BME280;48555;50.952;-0.120;2023-02-19T02:45:45;101889.88;;;11.40;78.91
61394;BME280;48555;50.952;-0.120;2023-02-19T02:50:49;101897.13;;;11.35;78.96
61394;BME280;48555;50.952;-0.120;2023-02-19T02:53:23;101898.91;;;11.34;78.56
61394;BME280;48555;50.952;-0.120;2023-02-19T02:56:09;101902.66;;;11.30;78.67
61394;BME280;48555;50.952;-0.120;2023-02-19T02:58:37;101896.06;;;11.23;78.95
61394;BME280;48555;50.952;-0.120;2023-02-19T03:01:07;101897.16;;;11.19;79.02
61394;BME280;48555;50.952;-0.120;2023-02-19T03:03:56;101901.56;;;11.19;78.76
61394;BME280;48555;50.952;-0.120;2023-02-19T03:06:25;101897.16;;;11.19;78.75
61394;BME280;48555;50.952;-0.120;2023-02-19T03:09:01;101901.81;;;11.14;78.78
61394;BME280;48555;50.952;-0.120;2023-02-19T03:11:31;101910.84;;;11.08;79.10
61394;BME280;48555;50.952;-0.120;2023-02-19T03:14:21;101917.94;;;11.06;79.32
61394;BME280;48555;50.952;-0.120;2023-02-19T03:17:26;101919.78;;;11.04;79.31
61394;BME280;48555;50.952;-0.120;2023-02-19T03:20:18;101918.53;;;10.96;79.14
61394;BME280;48555;50.952;-0.120;2023-02-19T03:22:45;101914.47;;;10.90;79.38
61394;BME280;48555;50.952;-0.120;2023-02-19T03:25:18;101913.63;;;10.89;79.58
61394;BME280;48555;50.952;-0.120;2023-02-19T03:28:04;101913.53;;;10.91;79.25
61394;BME280;48555;50.952;-0.120;2023-02-19T03:30:34;101916.41;;;10.86;79.65
61394;BME280;48555;50.952;-0.120;2023-02-19T03:33:16;101916.66;;;10.82;79.46
61394;BME280;48555;50.952;-0.120;2023-02-19T03:35:49;101921.81;;;10.83;79.30
61394;BME280;48555;50.952;-0.120;2023-02-19T03:38:39;101920.22;;;10.81;79.24
61394;BME280;48555;50.952;-0.120;2023-02-19T03:43:51;101936.69;;;10.83;78.73
61394;BME280;48555;50.952;-0.120;2023-02-19T03:46:25;101928.28;;;10.76;78.83
61394;BME280;48555;50.952;-0.120;2023-02-19T03:49:17;101940.78;;;10.71;79.15
61394;BME280;48555;50.952;-0.120;2023-02-19T03:52:06;101936.56;;;10.68;79.22
61394;BME280;48555;50.952;-0.120;2023-02-19T03:54:48;101945.56;;;10.63;79.24
61394;BME280;48555;50.952;-0.120;2023-02-19T03:57:40;101938.06;;;10.57;79.29
61394;BME280;48555;50.952;-0.120;2023-02-19T04:00:16;101952.91;;;10.56;79.42
61394;BME280;48555;50.952;-0.120;2023-02-19T04:03:07;101961.06;;;10.50;79.41
61394;BME280;48555;50.952;-0.120;2023-02-19T04:05:40;101954.38;;;10.44;79.28
61394;BME280;48555;50.952;-0.120;2023-02-19T04:08:12;101954.63;;;10.40;79.53
61394;BME280;48555;50.952;-0.120;2023-02-19T04:10:39;101963.28;;;10.40;79.49
61394;BME280;48555;50.952;-0.120;2023-02-19T04:13:14;101965.91;;;10.40;79.58
61394;BME280;48555;50.952;-0.120;2023-02-19T04:15:41;101974.69;;;10.39;79.46
61394;BME280;48555;50.952;-0.120;2023-02-19T04:18:21;101978.25;;;10.38;79.44
61394;BME280;48555;50.952;-0.120;2023-02-19T04:20:49;101973.75;;;10.40;79.46
61394;BME280;48555;50.952;-0.120;2023-02-19T04:23:18;101966.06;;;10.37;79.35
61394;BME280;48555;50.952;-0.120;2023-02-19T04:25:47;101973.84;;;10.39;79.40
61394;BME280;48555;50.952;-0.120;2023-02-19T04:28:16;101976.47;;;10.39;79.16
61394;BME280;48555;50.952;-0.120;2023-02-19T04:30:42;101977.53;;;10.35;79.28
61394;BME280;48555;50.952;-0.120;2023-02-19T04:33:08;101981.91;;;10.34;79.11
61394;BME280;48555;50.952;-0.120;2023-02-19T04:35:33;101988.25;;;10.30;79.38
61394;BME280;48555;50.952;-0.120;2023-02-19T04:37:58;101982.44;;;10.23;79.54
61394;BME280;48555;50.952;-0.120;2023-02-19T04:40:24;101998.19;;;10.22;79.80
61394;BME280;48555;50.952;-0.120;2023-02-19T04:42:50;102007.88;;;10.20;79.76
61394;BME280;48555;50.952;-0.120;2023-02-19T04:45:15;102010.50;;;10.20;79.63
61394;BME280;48555;50.952;-0.120;2023-02-19T04:47:40;102012.34;;;10.18;79.87
61394;BME280;48555;50.952;-0.120;2023-02-19T04:50:06;102016.66;;;10.19;79.54
61394;BME280;48555;50.952;-0.120;2023-02-19T04:52:32;102016.50;;;10.22;79.52
61394;BME280;48555;50.952;-0.120;2023-02-19T04:54:57;102016.44;;;10.23;79.16
61394;BME280;48555;50.952;-0.120;2023-02-19T04:57:22;102016.50;;;10.22;78.97
61394;BME280;48555;50.952;-0.120;2023-02-19T04:59:48;102024.28;;;10.23;79.01
61394;BME280;48555;50.952;-0.120;2023-02-19T05:02:13;102013.19;;;10.18;78.78
61394;BME280;48555;50.952;-0.120;2023-02-19T05:04:38;102024.50;;;10.19;79.00
61394;BME280;48555;50.952;-0.120;2023-02-19T05:07:04;102031.69;;;10.14;78.84
61394;BME280;48555;50.952;-0.120;2023-02-19T05:09:30;102037.88;;;10.13;79.15
61394;BME280;48555;50.952;-0.120;2023-02-19T05:11:55;102043.31;;;10.08;79.09
61394;BME280;48555;50.952;-0.120;2023-02-19T05:14:20;102045.31;;;10.03;78.96
61394;BME280;48555;50.952;-0.120;2023-02-19T05:16:46;102041.97;;;9.99;78.89
61394;BME280;48555;50.952;-0.120;2023-02-19T05:19:11;102040.16;;;10.01;78.89
61394;BME280;48555;50.952;-0.120;2023-02-19T05:21:37;102044.38;;;10.04;78.91
61394;BME280;48555;50.952;-0.120;2023-02-19T05:24:04;102049.53;;;10.06;78.83
61394;BME280;48555;50.952;-0.120;2023-02-19T05:26:30;102026.53;;;9.95;78.63
61394;BME280;48555;50.952;-0.120;2023-02-19T05:28:55;102039.22;;;10.02;78.47
61394;BME280;48555;50.952;-0.120;2023-02-19T05:31:21;102053.06;;;10.05;78.46
61394;BME280;48555;50.952;-0.120;2023-02-19T05:33:46;102051.59;;;9.99;78.40
61394;BME280;48555;50.952;-0.120;2023-02-19T05:36:16;102058.66;;;9.97;78.41
61394;BME280;48555;50.952;-0.120;2023-02-19T05:38:41;102058.94;;;9.91;78.63
61394;BME280;48555;50.952;-0.120;2023-02-19T05:43:32;102062.63;;;9.87;78.41
61394;BME280;48555;50.952;-0.120;2023-02-19T05:45:57;102065.53;;;9.81;78.68
61394;BME280;48555;50.952;-0.120;2023-02-19T05:48:23;102066.69;;;9.75;78.76
61394;BME280;48555;50.952;-0.120;2023-02-19T05:50:49;102071.06;;;9.74;78.85
61394;BME280;48555;50.952;-0.120;2023-02-19T05:53:14;102070.38;;;9.71;78.96
61394;BME280;48555;50.952;-0.120;2023-02-19T05:55:39;102079.25;;;9.67;78.89
61394;BME280;48555;50.952;-0.120;2023-02-19T05:58:05;102080.16;;;9.66;78.70
61394;BME280;48555;50.952;-0.120;2023-02-19T06:00:31;102073.47;;;9.60;78.62
61394;BME280;48555;50.952;-0.120;2023-02-19T06:02:57;102077.69;;;9.63;78.89
61394;BME280;48555;50.952;-0.120;2023-02-19T06:05:22;102077.06;;;9.58;78.90
61394;BME280;48555;50.952;-0.120;2023-02-19T06:07:48;102092.09;;;9.52;78.96
61394;BME280;48555;50.952;-0.120;2023-02-19T06:10:14;102078.97;;;9.54;79.20
61394;BME280;48555;50.952;-0.120;2023-02-19T06:12:40;102091.94;;;9.55;78.79
61394;BME280;48555;50.952;-0.120;2023-02-19T06:15:06;102090.13;;;9.58;78.79
61394;BME280;48555;50.952;-0.120;2023-02-19T06:17:32;102094.50;;;9.57;78.88
61394;BME280;48555;50.952;-0.120;2023-02-19T06:19:58;102091.88;;;9.57;78.90
61394;BME280;48555;50.952;-0.120;2023-02-19T06:22:23;102095.91;;;9.64;79.03
61394;BME280;48555;50.952;-0.120;2023-02-19T06:24:49;102097.38;;;9.70;78.92
61394;BME280;48555;50.952;-0.120;2023-02-19T06:27:14;102092.09;;;9.71;78.64
61394;BME280;48555;50.952;-0.120;2023-02-19T06:29:39;102092.09;;;9.71;78.53
61394;BME280;48555;50.952;-0.120;2023-02-19T06:32:05;102093.00;;;9.70;78.70
61394;BME280;48555;50.952;-0.120;2023-02-19T06:34:31;102101.75;;;9.69;78.57
61394;BME280;48555;50.952;-0.120;2023-02-19T06:36:57;102098.44;;;9.66;78.78
61394;BME280;48555;50.952;-0.120;2023-02-19T06:39:22;102109.75;;;9.66;78.77
61394;BME280;48555;50.952;-0.120;2023-02-19T06:41:48;102107.91;;;9.68;78.61
61394;BME280;48555;50.952;-0.120;2023-02-19T06:44:14;102107.81;;;9.70;78.32
61394;BME280;48555;50.952;-0.120;2023-02-19T06:46:39;102111.28;;;9.70;78.32
61394;BME280;48555;50.952;-0.120;2023-02-19T06:49:05;102117.53;;;9.68;78.28
61394;BME280;48555;50.952;-0.120;2023-02-19T06:51:30;102123.72;;;9.65;78.44
61394;BME280;48555;50.952;-0.120;2023-02-19T06:53:57;102127.47;;;9.60;78.66
61394;BME280;48555;50.952;-0.120;2023-02-19T06:56:35;102130.06;;;9.60;78.66
61394;BME280;48555;50.952;-0.120;2023-02-19T06:59:03;102142.34;;;9.58;78.40
61394;BME280;48555;50.952;-0.120;2023-02-19T07:01:30;102139.88;;;9.54;78.50
61394;BME280;48555;50.952;-0.120;2023-02-19T07:03:56;102137.22;;;9.56;78.58
61394;BME280;48555;50.952;-0.120;2023-02-19T07:06:23;102139.88;;;9.54;78.22
61394;BME280;48555;50.952;-0.120;2023-02-19T07:08:49;102139.72;;;9.58;78.31
61394;BME280;48555;50.952;-0.120;2023-02-19T07:11:15;102132.69;;;9.60;78.18
61394;BME280;48555;50.952;-0.120;2023-02-19T07:13:42;102142.22;;;9.61;78.15
61394;BME280;48555;50.952;-0.120;2023-02-19T07:16:08;102141.28;;;9.62;78.15
61394;BME280;48555;50.952;-0.120;2023-02-19T07:18:35;102139.59;;;9.61;78.12
61394;BME280;48555;50.952;-0.120;2023-02-19T07:21:05;102150.25;;;9.56;78.39
61394;BME280;48555;50.952;-0.120;2023-02-19T07:23:31;102151.09;;;9.57;78.66
61394;BME280;48555;50.952;-0.120;2023-02-19T07:25:57;102157.03;;;9.60;78.44
61394;BME280;48555;50.952;-0.120;2023-02-19T07:28:22;102155.13;;;9.64;78.55
61394;BME280;48555;50.952;-0.120;2023-02-19T07:30:48;102160.22;;;9.67;78.22
61394;BME280;48555;50.952;-0.120;2023-02-19T07:33:13;102162.69;;;9.70;78.32
61394;BME280;48555;50.952;-0.120;2023-02-19T07:35:48;102164.97;;;9.77;78.39
61394;BME280;48555;50.952;-0.120;2023-02-19T07:38:18;102183.66;;;9.87;78.28
61394;BME280;48555;50.952;-0.120;2023-02-19T07:40:54;102178.00;;;9.96;78.36
61394;BME280;48555;50.952;-0.120;2023-02-19T07:43:20;102189.06;;;10.03;78.13
61394;BME280;48555;50.952;-0.120;2023-02-19T07:45:45;102180.97;;;10.08;78.07
61394;BME280;48555;50.952;-0.120;2023-02-19T07:48:11;102179.25;;;10.26;78.30
61394;BME280;48555;50.952;-0.120;2023-02-19T07:50:36;102191.53;;;10.61;78.15
61394;BME280;48555;50.952;-0.120;2023-02-19T07:53:02;102186.56;;;10.91;77.93
61394;BME280;48555;50.952;-0.120;2023-02-19T07:55:28;102197.03;;;11.09;77.45
61394;BME280;48555;50.952;-0.120;2023-02-19T07:57:53;102181.22;;;11.28;76.92
61394;BME280;48555;50.952;-0.120;2023-02-19T08:00:18;102179.66;;;11.41;76.20
61394;BME280;48555;50.952;-0.120;2023-02-19T08:02:44;102178.47;;;11.47;75.96
61394;BME280;48555;50.952;-0.120;2023-02-19T08:05:26;102180.41;;;11.43;75.35
61394;BME280;48555;50.952;-0.120;2023-02-19T08:07:52;102208.56;;;11.40;75.25
61394;BME280;48555;50.952;-0.120;2023-02-19T08:10:17;102213.44;;;11.30;75.39
61394;BME280;48555;50.952;-0.120;2023-02-19T08:13:02;102217.66;;;11.15;75.20
61394;BME280;48555;50.952;-0.120;2023-02-19T08:15:49;102205.13;;;11.04;75.50
61394;BME280;48555;50.952;-0.120;2023-02-19T08:18:16;102205.63;;;10.94;75.73
61394;BME280;48555;50.952;-0.120;2023-02-19T08:20:42;102210.03;;;10.93;75.39
61394;BME280;48555;50.952;-0.120;2023-02-19T08:23:08;102203.13;;;10.92;75.51
61394;BME280;48555;50.952;-0.120;2023-02-19T08:25:33;102200.56;;;10.90;75.55
61394;BME280;48555;50.952;-0.120;2023-02-19T08:27:59;102217.19;;;10.89;75.41
61394;BME280;48555;50.952;-0.120;2023-02-19T08:30:25;102214.03;;;10.83;75.51
61394;BME280;48555;50.952;-0.120;2023-02-19T08:32:51;102217.94;;;10.74;75.76
61394;BME280;48555;50.952;-0.120;2023-02-19T08:35:16;102216.34;;;10.72;75.85
61394;BME280;48555;50.952;-0.120;2023-02-19T08:37:41;102215.63;;;10.68;75.92
61394;BME280;48555;50.952;-0.120;2023-02-19T08:40:07;102227.63;;;10.72;75.80
61394;BME280;48555;50.952;-0.120;2023-02-19T08:42:33;102233.94;;;10.68;75.89
61394;BME280;48555;50.952;-0.120;2023-02-19T08:44:58;102253.75;;;10.74;75.69
61394;BME280;48555;50.952;-0.120;2023-02-19T08:47:23;102246.78;;;10.73;75.67
61394;BME280;48555;50.952;-0.120;2023-02-19T08:49:49;102251.72;;;10.79;75.79
61394;BME280;48555;50.952;-0.120;2023-02-19T08:52:14;102256.13;;;10.78;75.42
61394;BME280;48555;50.952;-0.120;2023-02-19T08:54:39;102263.19;;;10.76;75.50
61394;BME280;48555;50.952;-0.120;2023-02-19T08:57:05;102278.59;;;10.82;75.34
61394;BME280;48555;50.952;-0.120;2023-02-19T08:59:30;102282.13;;;10.81;75.75
61394;BME280;48555;50.952;-0.120;2023-02-19T09:01:59;102279.63;;;10.80;76.05
61394;BME280;48555;50.952;-0.120;2023-02-19T09:04:25;102286.31;;;10.85;75.90
61394;BME280;48555;50.952;-0.120;2023-02-19T09:06:50;102285.09;;;10.93;76.55
61394;BME280;48555;50.952;-0.120;2023-02-19T09:09:16;102277.41;;;11.07;76.65
61394;BME280;48555;50.952;-0.120;2023-02-19T09:11:41;102276.66;;;11.22;76.48
61394;BME280;48555;50.952;-0.120;2023-02-19T09:14:07;102291.44;;;11.41;76.38
61394;BME280;48555;50.952;-0.120;2023-02-19T09:16:34;102299.38;;;11.56;76.30
61394;BME280;48555;50.952;-0.120;2023-02-19T09:18:59;102290.94;;;11.67;76.05
61394;BME280;48555;50.952;-0.120;2023-02-19T09:21:24;102280.31;;;11.70;75.94
61394;BME280;48555;50.952;-0.120;2023-02-19T09:23:50;102295.88;;;11.73;75.67
61394;BME280;48555;50.952;-0.120;2023-02-19T09:26:15;102296.41;;;11.80;75.22
61394;BME280;48555;50.952;-0.120;2023-02-19T09:28:41;102291.84;;;11.83;74.85
61394;BME280;48555;50.952;-0.120;2023-02-19T09:31:08;102296.25;;;11.83;74.90
61394;BME280;48555;50.952;-0.120;2023-02-19T09:33:35;102292.81;;;11.82;74.67
61394;BME280;48555;50.952;-0.120;2023-02-19T09:36:01;102284.38;;;11.76;74.37
61394;BME280;48555;50.952;-0.120;2023-02-19T09:38:27;102285.09;;;11.79;74.51
61394;BME280;48555;50.952;-0.120;2023-02-19T09:40:54;102293.63;;;11.83;74.25
61394;BME280;48555;50.952;-0.120;2023-02-19T09:43:22;102296.03;;;11.88;73.98
61394;BME280;48555;50.952;-0.120;2023-02-19T09:45:58;102306.97;;;11.96;73.82
61394;BME280;48555;50.952;-0.120;2023-02-19T09:48:25;102309.88;;;12.07;73.89
61394;BME280;48555;50.952;-0.120;2023-02-19T09:50:51;102314.41;;;12.21;74.12
61394;BME280;48555;50.952;-0.120;2023-02-19T09:53:23;102318.47;;;12.26;73.80
61394;BME280;48555;50.952;-0.120;2023-02-19T09:55:50;102319.50;;;12.40;73.62
61394;BME280;48555;50.952;-0.120;2023-02-19T09:58:36;102311.78;;;12.53;73.60
61394;BME280;48555;50.952;-0.120;2023-02-19T10:01:09;102294.34;;;12.67;72.88
61394;BME280;48555;50.952;-0.120;2023-02-19T10:03:37;102293.16;;;12.73;72.55
61394;BME280;48555;50.952;-0.120;2023-02-19T10:06:18;102307.38;;;12.85;71.83
61394;BME280;48555;50.952;-0.120;2023-02-19T10:08:46;102317.69;;;12.88;71.43
61394;BME280;48555;50.952;-0.120;2023-02-19T10:11:12;102310.41;;;12.93;70.62
61394;BME280;48555;50.952;-0.120;2023-02-19T10:14:07;102319.97;;;12.94;70.57
61394;BME280;48555;50.952;-0.120;2023-02-19T10:16:39;102320.22;;;13.05;70.44
61394;BME280;48555;50.952;-0.120;2023-02-19T10:19:10;102341.66;;;13.13;69.70
61394;BME280;48555;50.952;-0.120;2023-02-19T10:21:37;102350.31;;;13.15;68.35
61394;BME280;48555;50.952;-0.120;2023-02-19T10:24:04;102352.25;;;13.12;67.39
61394;BME280;48555;50.952;-0.120;2023-02-19T10:26:30;102344.28;;;13.13;67.89
61394;BME280;48555;50.952;-0.120;2023-02-19T10:29:04;102360.53;;;13.20;68.28
61394;BME280;48555;50.952;-0.120;2023-02-19T10:31:31;102356.56;;;13.29;68.22
61394;BME280;48555;50.952;-0.120;2023-02-19T10:33:58;102374.09;;;13.28;67.08
61394;BME280;48555;50.952;-0.120;2023-02-19T10:36:38;102372.50;;;13.26;67.22
61394;BME280;48555;50.952;-0.120;2023-02-19T10:41:52;102364.38;;;13.30;66.65
61394;BME280;48555;50.952;-0.120;2023-02-19T10:44:23;102356.22;;;13.35;66.77
61394;BME280;48555;50.952;-0.120;2023-02-19T10:46:52;102351.34;;;13.43;67.13
61394;BME280;48555;50.952;-0.120;2023-02-19T10:49:38;102343.28;;;13.46;66.62
61394;BME280;48555;50.952;-0.120;2023-02-19T10:52:24;102351.28;;;13.45;65.63
61394;BME280;48555;50.952;-0.120;2023-02-19T10:54:57;102346.75;;;13.47;64.97
61394;BME280;48555;50.952;-0.120;2023-02-19T10:57:37;102343.28;;;13.46;65.49
61394;BME280;48555;50.952;-0.120;2023-02-19T11:03:17;102342.31;;;13.63;65.64
61394;BME280;48555;50.952;-0.120;2023-02-19T11:06:03;102350.31;;;13.76;65.37
61394;BME280;48555;50.952;-0.120;2023-02-19T11:08:46;102345.25;;;13.87;65.15
61394;BME280;48555;50.952;-0.120;2023-02-19T11:11:27;102344.41;;;13.72;62.89
61394;BME280;48555;50.952;-0.120;2023-02-19T11:13:55;102355.50;;;13.77;63.43
61394;BME280;48555;50.952;-0.120;2023-02-19T11:16:23;102342.94;;;13.82;63.84
61394;BME280;48555;50.952;-0.120;2023-02-19T11:19:00;102349.97;;;13.96;63.69
61394;BME280;48555;50.952;-0.120;2023-02-19T11:21:28;102354.38;;;13.96;63.27
61394;BME280;48555;50.952;-0.120;2023-02-19T11:23:58;102351.69;;;13.97;62.77
61394;BME280;48555;50.952;-0.120;2023-02-19T11:26:26;102346.41;;;13.97;62.58
61394;BME280;48555;50.952;-0.120;2023-02-19T11:28:56;102340.28;;;13.97;62.64
61394;BME280;48555;50.952;-0.120;2023-02-19T11:31:32;102350.16;;;13.93;62.20
61394;BME280;48555;50.952;-0.120;2023-02-19T11:34:22;102335.13;;;13.95;62.63
61394;BME280;48555;50.952;-0.120;2023-02-19T11:37:15;102341.31;;;14.08;62.56
61394;BME280;48555;50.952;-0.120;2023-02-19T11:39:43;102343.56;;;14.15;62.13
61394;BME280;48555;50.952;-0.120;2023-02-19T11:50:37;102332.97;;;14.30;61.72
61394;BME280;48555;50.952;-0.120;2023-02-19T11:53:32;102358.06;;;14.36;61.43
61394;BME280;48555;50.952;-0.120;2023-02-19T11:56:05;102349.72;;;14.29;60.24
61394;BME280;48555;50.952;-0.120;2023-02-19T12:12:16;102352.16;;;14.32;60.39
61394;BME280;48555;50.952;-0.120;2023-02-19T12:15:05;102356.34;;;14.35;60.27
61394;BME280;48555;50.952;-0.120;2023-02-19T12:20:42;102321.78;;;14.27;59.58
61394;BME280;48555;50.952;-0.120;2023-02-19T12:39:36;102318.66;;;14.63;59.68
61394;BME280;48555;50.952;-0.120;2023-02-19T12:45:23;102313.56;;;14.74;59.84
61394;BME280;48555;50.952;-0.120;2023-02-19T12:47:58;102320.66;;;14.87;59.52
61394;BME280;48555;50.952;-0.120;2023-02-19T12:50:26;102309.09;;;14.89;59.25
61394;BME280;48555;50.952;-0.120;2023-02-19T12:52:57;102301.81;;;14.93;59.43
61394;BME280;48555;50.952;-0.120;2023-02-19T12:55:28;102282.97;;;14.99;59.25
61394;BME280;48555;50.952;-0.120;2023-02-19T12:57:55;102285.22;;;15.05;59.37
61394;BME280;48555;50.952;-0.120;2023-02-19T13:03:13;102287.56;;;15.10;58.63
61394;BME280;48555;50.952;-0.120;2023-02-19T13:05:54;102286.59;;;15.11;58.60
61394;BME280;48555;50.952;-0.120;2023-02-19T13:08:38;102283.88;;;15.12;58.61
61394;BME280;48555;50.952;-0.120;2023-02-19T13:11:18;102290.94;;;15.12;58.16
61394;BME280;48555;50.952;-0.120;2023-02-19T13:14:05;102293.22;;;15.04;57.80
61394;BME280;48555;50.952;-0.120;2023-02-19T13:16:38;102292.59;;;15.00;58.34
61394;BME280;48555;50.952;-0.120;2023-02-19T13:19:08;102290.03;;;14.98;58.04
61394;BME280;48555;50.952;-0.120;2023-02-19T13:21:36;102298.91;;;14.97;58.20
61394;BME280;48555;50.952;-0.120;2023-02-19T13:24:27;102298.91;;;14.97;58.37
61394;BME280;48555;50.952;-0.120;2023-02-19T13:27:06;102296.28;;;14.97;58.12
61394;BME280;48555;50.952;-0.120;2023-02-19T13:29:45;102292.69;;;14.98;58.46
61394;BME280;48555;50.952;-0.120;2023-02-19T13:37:26;102304.41;;;15.07;58.92
61394;BME280;48555;50.952;-0.120;2023-02-19T13:39:56;102299.69;;;15.12;58.37
61394;BME280;48555;50.952;-0.120;2023-02-19T13:42:32;102296.72;;;15.17;58.57
61394;BME280;48555;50.952;-0.120;2023-02-19T13:45:00;102298.09;;;15.22;58.38
61394;BME280;48555;50.952;-0.120;2023-02-19T13:50:31;102294.66;;;15.35;57.52
61394;BME280;48555;50.952;-0.120;2023-02-19T13:52:59;102288.34;;;15.37;57.38
61394;BME280;48555;50.952;-0.120;2023-02-19T14:00:57;102275.38;;;15.60;56.96
61394;BME280;48555;50.952;-0.120;2023-02-19T14:06:06;102275.06;;;15.64;56.05
61394;BME280;48555;50.952;-0.120;2023-02-19T14:08:54;102270.88;;;15.62;55.74
61394;BME280;48555;50.952;-0.120;2023-02-19T14:16:55;102276.53;;;15.56;55.30
61394;BME280;48555;50.952;-0.120;2023-02-19T14:27:51;102253.97;;;15.52;56.21
61394;BME280;48555;50.952;-0.120;2023-02-19T14:30:17;102259.03;;;15.55;56.23
61394;BME280;48555;50.952;-0.120;2023-02-19T14:32:43;102251.47;;;15.50;56.20
61394;BME280;48555;50.952;-0.120;2023-02-19T14:35:24;102251.75;;;15.45;56.16
61394;BME280;48555;50.952;-0.120;2023-02-19T14:37:50;102243.94;;;15.44;56.25
61394;BME280;48555;50.952;-0.120;2023-02-19T14:40:31;102236.44;;;15.38;56.36
61394;BME280;48555;50.952;-0.120;2023-02-19T14:42:58;102216.75;;;15.31;56.65
61394;BME280;48555;50.952;-0.120;2023-02-19T14:45:26;102221.69;;;15.22;56.71